createdAt,value
2022-10-05T00:00:03.879Z,101777.54
2022-10-05T00:01:30.186Z,101780.38
2022-10-05T00:02:32.300Z,101779.77
2022-10-05T00:03:36.456Z,101775.43
2022-10-05T00:04:38.304Z,101768.77
2022-10-05T00:05:40.108Z,101769.80
2022-10-05T00:07:08.430Z,101764.38
2022-10-05T00:08:10.177Z,101763.42
2022-10-05T00:09:16.635Z,101766.62
2022-10-05T00:10:18.817Z,101774.13
2022-10-05T00:11:20.656Z,101777.56
2022-10-05T00:12:23.551Z,101780.38
2022-10-05T00:13:29.131Z,101781.19
2022-10-05T00:14:34.386Z,101776.06
2022-10-05T00:15:36.028Z,101779.10
2022-10-05T00:16:37.662Z,101783.52
2022-10-05T00:17:41.272Z,101785.48
2022-10-05T00:18:48.059Z,101789.50
2022-10-05T00:19:53.465Z,101791.61
2022-10-05T00:20:56.337Z,101791.88
2022-10-05T00:22:33.112Z,101789.20
2022-10-05T00:23:34.791Z,101784.45
2022-10-05T00:24:36.527Z,101778.40
2022-10-05T00:25:38.379Z,101774.48
2022-10-05T00:26:39.929Z,101772.41
2022-10-05T00:27:41.961Z,101766.23
2022-10-05T00:28:43.737Z,101760.91
2022-10-05T00:29:46.569Z,101761.11
2022-10-05T00:30:48.284Z,101759.98
2022-10-05T00:31:50.258Z,101756.27
2022-10-05T00:32:56.109Z,101752.35
2022-10-05T00:34:01.261Z,101750.11
2022-10-05T00:35:03.248Z,101748.20
2022-10-05T00:36:07.119Z,101743.74
2022-10-05T00:37:09.193Z,101741.88
2022-10-05T00:38:10.923Z,101742.99
2022-10-05T00:39:13.334Z,101746.12
2022-10-05T00:40:25.813Z,101748.80
2022-10-05T00:41:52.861Z,101748.15
2022-10-05T00:43:03.111Z,101748.98
2022-10-05T00:44:15.258Z,101748.88
2022-10-05T00:45:37.025Z,101742.76
2022-10-05T00:47:31.019Z,101740.05
2022-10-05T00:48:45.379Z,101737.54
2022-10-05T00:50:08.113Z,101738.92
2022-10-05T00:51:27.618Z,101738.27
2022-10-05T00:52:46.060Z,101737.50
2022-10-05T00:54:14.717Z,101736.46
2022-10-05T00:55:45.696Z,101731.98
2022-10-05T00:56:53.525Z,101737.27
2022-10-05T00:58:25.734Z,101736.98
2022-10-05T00:59:36.301Z,101735.98
2022-10-05T01:00:45.142Z,101737.57
2022-10-05T01:02:23.874Z,101738.00
2022-10-05T01:03:37.831Z,101740.70
2022-10-05T01:04:59.444Z,101735.00
2022-10-05T01:06:09.657Z,101731.73
2022-10-05T01:07:35.246Z,101732.33
2022-10-05T01:08:51.826Z,101736.27
2022-10-05T01:10:17.768Z,101730.66
2022-10-05T01:11:46.857Z,101723.89
2022-10-05T01:12:55.289Z,101720.24
2022-10-05T01:14:15.582Z,101709.00
2022-10-05T01:15:30.853Z,101704.25
2022-10-05T01:17:04.351Z,101699.66
2022-10-05T01:18:26.409Z,101697.79
2022-10-05T01:19:59.826Z,101702.71
2022-10-05T01:21:13.385Z,101702.46
2022-10-05T01:22:36.585Z,101702.14
2022-10-05T01:23:41.192Z,101699.19
2022-10-05T01:25:04.291Z,101698.77
2022-10-05T01:26:45.569Z,101700.60
2022-10-05T01:28:16.174Z,101698.90
2022-10-05T01:29:23.658Z,101696.02
2022-10-05T01:31:20.544Z,101699.82
2022-10-05T01:32:49.293Z,101713.77
2022-10-05T01:34:04.236Z,101714.14
2022-10-05T01:35:28.145Z,101711.45
2022-10-05T01:37:07.016Z,101714.66
2022-10-05T01:38:39.312Z,101713.56
2022-10-05T01:40:19.894Z,101711.51
2022-10-05T01:41:40.505Z,101706.29
2022-10-05T01:42:44.760Z,101709.45
2022-10-05T01:43:57.389Z,101709.95
2022-10-05T01:45:14.193Z,101710.70
2022-10-05T01:46:29.835Z,101710.70
2022-10-05T01:48:03.550Z,101711.45
2022-10-05T01:49:42.464Z,101707.39
2022-10-05T01:51:16.206Z,101705.37
2022-10-05T01:52:38.856Z,101703.88
2022-10-05T01:53:40.770Z,101701.11
2022-10-05T01:54:48.484Z,101702.43
2022-10-05T01:55:56.259Z,101704.15
2022-10-05T01:57:03.496Z,101705.55
2022-10-05T01:58:17.163Z,101702.03
2022-10-05T01:59:51.949Z,101701.00
2022-10-05T02:01:04.217Z,101705.33
2022-10-05T02:02:17.609Z,101704.02
2022-10-05T02:03:27.166Z,101708.57
2022-10-05T02:06:15.055Z,101699.96
2022-10-05T02:07:32.042Z,101692.04
2022-10-05T02:08:45.814Z,101690.39
2022-10-05T02:09:53.481Z,101685.59
2022-10-05T02:11:03.005Z,101684.27
2022-10-05T02:12:15.411Z,101684.24
2022-10-05T02:13:24.841Z,101682.95
2022-10-05T02:14:32.639Z,101687.45
2022-10-05T02:15:45.667Z,101688.08
2022-10-05T02:16:50.763Z,101691.36
2022-10-05T02:17:58.926Z,101686.48
2022-10-05T02:19:41.621Z,101685.91
2022-10-05T02:20:46.582Z,101687.14
2022-10-05T02:22:03.967Z,101682.07
2022-10-05T02:23:21.668Z,101684.66
2022-10-05T02:24:29.114Z,101680.41
2022-10-05T02:25:34.467Z,101673.09
2022-10-05T02:26:38.657Z,101666.30
2022-10-05T02:28:03.808Z,101662.42
2022-10-05T02:29:10.942Z,101657.83
2022-10-05T02:30:16.565Z,101655.27
2022-10-05T02:31:34.759Z,101651.69
2022-10-05T02:33:02.033Z,101650.60
2022-10-05T02:34:28.549Z,101650.30
2022-10-05T02:35:38.730Z,101642.53
2022-10-05T02:36:40.471Z,101642.88
2022-10-05T02:37:56.628Z,101639.81
2022-10-05T02:39:06.539Z,101634.67
2022-10-05T02:40:27.023Z,101629.16
2022-10-05T02:41:46.954Z,101626.56
2022-10-05T02:43:19.739Z,101630.20
2022-10-05T02:44:49.767Z,101624.21
2022-10-05T02:46:06.376Z,101625.33
2022-10-05T02:47:32.940Z,101628.72
2022-10-05T02:48:43.498Z,101627.44
2022-10-05T02:50:03.184Z,101625.48
2022-10-05T02:51:15.733Z,101623.61
2022-10-05T02:52:25.451Z,101623.80
2022-10-05T02:53:33.620Z,101622.90
2022-10-05T02:55:15.180Z,101623.95
2022-10-05T02:56:32.874Z,101620.08
2022-10-05T02:57:42.021Z,101619.98
2022-10-05T02:58:51.840Z,101616.22
2022-10-05T03:00:08.793Z,101616.00
2022-10-05T03:01:23.155Z,101615.86
2022-10-05T03:02:56.008Z,101615.32
2022-10-05T03:04:24.017Z,101613.55
2022-10-05T03:05:31.577Z,101610.77
2022-10-05T03:06:41.607Z,101606.98
2022-10-05T03:07:55.870Z,101603.98
2022-10-05T03:09:05.195Z,101602.61
2022-10-05T03:10:34.342Z,101599.95
2022-10-05T03:11:54.859Z,101601.57
2022-10-05T03:13:16.045Z,101606.09
2022-10-05T03:14:37.287Z,101605.27
2022-10-05T03:16:20.204Z,101606.67
2022-10-05T03:17:28.049Z,101612.65
2022-10-05T03:18:35.708Z,101610.52
2022-10-05T03:20:08.075Z,101610.48
2022-10-05T03:21:12.872Z,101612.58
2022-10-05T03:22:32.812Z,101610.80
2022-10-05T03:24:07.342Z,101613.33
2022-10-05T03:25:27.373Z,101607.30
2022-10-05T03:26:49.458Z,101607.11
2022-10-05T03:28:00.707Z,101604.99
2022-10-05T03:29:14.246Z,101604.50
2022-10-05T03:30:22.704Z,101605.58
2022-10-05T03:31:41.698Z,101608.02
2022-10-05T03:32:52.584Z,101610.80
2022-10-05T03:34:05.679Z,101609.09
2022-10-05T03:35:13.181Z,101610.27
2022-10-05T03:36:17.785Z,101607.44
2022-10-05T03:37:33.200Z,101609.94
2022-10-05T03:38:56.703Z,101604.65
2022-10-05T03:40:19.779Z,101600.91
2022-10-05T03:41:54.206Z,101598.81
2022-10-05T03:43:24.587Z,101595.63
2022-10-05T03:44:32.298Z,101594.98
2022-10-05T03:45:55.923Z,101591.82
2022-10-05T03:46:57.515Z,101594.77
2022-10-05T03:48:27.936Z,101591.23
2022-10-05T03:49:32.714Z,101590.68
2022-10-05T03:51:14.579Z,101590.19
2022-10-05T03:52:28.295Z,101598.56
2022-10-05T03:53:37.895Z,101599.77
2022-10-05T03:55:11.420Z,101600.84
2022-10-05T03:56:25.122Z,101610.73
2022-10-05T03:57:31.273Z,101613.77
2022-10-05T03:58:41.202Z,101612.59
2022-10-05T04:00:02.159Z,101611.60
2022-10-05T04:01:21.699Z,101611.77
2022-10-05T04:02:28.852Z,101611.93
2022-10-05T04:03:43.979Z,101606.85
2022-10-05T04:04:59.735Z,101602.67
2022-10-05T04:06:10.582Z,101592.31
2022-10-05T04:07:25.150Z,101589.06
2022-10-05T04:08:45.386Z,101588.33
2022-10-05T04:09:52.483Z,101583.91
2022-10-05T04:10:57.298Z,101583.75
2022-10-05T04:12:23.085Z,101585.32
2022-10-05T04:13:39.612Z,101581.77
2022-10-05T04:14:46.576Z,101584.13
2022-10-05T04:16:05.426Z,101583.09
2022-10-05T04:17:17.508Z,101582.02
2022-10-05T04:18:33.759Z,101581.55
2022-10-05T04:19:49.842Z,101583.57
2022-10-05T04:20:57.740Z,101581.70
2022-10-05T04:22:15.011Z,101581.27
2022-10-05T04:23:28.596Z,101579.95
2022-10-05T04:24:53.503Z,101577.73
2022-10-05T04:26:04.221Z,101575.67
2022-10-05T04:27:23.811Z,101577.80
2022-10-05T04:28:37.855Z,101575.88
2022-10-05T04:29:47.640Z,101577.89
2022-10-05T04:30:52.504Z,101575.55
2022-10-05T04:32:21.118Z,101575.37
2022-10-05T04:33:23.091Z,101579.54
2022-10-05T04:34:46.466Z,101578.41
2022-10-05T04:36:16.040Z,101579.73
2022-10-05T04:37:28.124Z,101579.92
2022-10-05T04:38:35.543Z,101578.30
2022-10-05T04:40:03.096Z,101576.09
2022-10-05T04:41:38.598Z,101574.90
2022-10-05T04:43:12.645Z,101576.79
2022-10-05T04:44:38.418Z,101572.19
2022-10-05T04:45:56.071Z,101568.67
2022-10-05T04:47:18.300Z,101567.05
2022-10-05T04:48:53.818Z,101562.99
2022-10-05T04:49:56.286Z,101558.21
2022-10-05T04:50:58.169Z,101551.90
2022-10-05T04:52:18.640Z,101548.37
2022-10-05T04:53:35.330Z,101547.20
2022-10-05T04:54:46.062Z,101551.67
2022-10-05T04:55:54.009Z,101541.65
2022-10-05T04:57:03.019Z,101539.39
2022-10-05T04:58:40.056Z,101535.19
2022-10-05T05:00:09.040Z,101531.33
2022-10-05T05:01:37.510Z,101533.43
2022-10-05T05:02:46.845Z,101525.31
2022-10-05T05:03:55.297Z,101526.67
2022-10-05T05:05:18.822Z,101524.91
2022-10-05T05:06:41.707Z,101514.02
2022-10-05T05:08:05.071Z,101522.20
2022-10-05T05:09:34.571Z,101522.33
2022-10-05T05:11:15.040Z,101525.97
2022-10-05T05:12:36.534Z,101515.05
2022-10-05T05:14:29.178Z,101512.88
2022-10-05T05:15:43.560Z,101511.23
2022-10-05T05:16:55.085Z,101504.94
2022-10-05T05:17:56.784Z,101504.78
2022-10-05T05:19:10.550Z,101508.41
2022-10-05T05:20:32.931Z,101515.41
2022-10-05T05:22:03.721Z,101517.30
2022-10-05T05:23:06.949Z,101525.85
2022-10-05T05:24:44.589Z,101530.16
2022-10-05T05:26:09.159Z,101538.16
2022-10-05T05:27:24.025Z,101540.02
2022-10-05T05:28:34.479Z,101541.42
2022-10-05T05:30:06.464Z,101544.77
2022-10-05T05:31:19.250Z,101543.03
2022-10-05T05:33:05.890Z,101541.21
2022-10-05T05:34:48.427Z,101533.58
2022-10-05T05:36:23.408Z,101539.63
2022-10-05T05:38:02.000Z,101533.82
2022-10-05T05:39:12.945Z,101532.11
2022-10-05T05:40:19.100Z,101535.73
2022-10-05T05:41:30.069Z,101541.09
2022-10-05T05:42:47.829Z,101541.59
2022-10-05T05:44:19.884Z,101543.71
2022-10-05T05:45:41.180Z,101541.52
2022-10-05T05:47:03.378Z,101537.61
2022-10-05T05:48:21.032Z,101537.41
2022-10-05T05:50:05.578Z,101539.20
2022-10-05T05:51:22.284Z,101541.86
2022-10-05T05:52:30.043Z,101545.72
2022-10-05T05:53:45.276Z,101549.52
2022-10-05T05:55:29.054Z,101550.96
2022-10-05T05:56:37.595Z,101541.02
2022-10-05T05:58:18.654Z,101539.20
2022-10-05T05:59:45.082Z,101534.11
2022-10-05T06:00:54.469Z,101529.42
2022-10-05T06:02:07.724Z,101531.88
2022-10-05T06:03:22.092Z,101533.63
2022-10-05T06:04:56.371Z,101529.95
2022-10-05T06:06:03.135Z,101541.02
2022-10-05T06:07:05.976Z,101546.18
2022-10-05T06:08:22.981Z,101548.24
2022-10-05T06:09:30.488Z,101546.63
2022-10-05T06:10:56.900Z,101537.52
2022-10-05T06:12:08.067Z,101538.13
2022-10-05T06:13:19.940Z,101534.79
2022-10-05T06:14:31.835Z,101537.33
2022-10-05T06:15:43.244Z,101531.80
2022-10-05T06:17:09.091Z,101532.23
2022-10-05T06:18:14.828Z,101530.92
2022-10-05T06:19:20.703Z,101537.00
2022-10-05T06:20:51.176Z,101541.18
2022-10-05T06:22:02.060Z,101538.70
2022-10-05T06:23:11.710Z,101530.05
2022-10-05T06:24:20.395Z,101531.33
2022-10-05T06:25:43.891Z,101533.17
2022-10-05T06:26:57.713Z,101525.23
2022-10-05T06:28:10.568Z,101517.65
2022-10-05T06:29:23.810Z,101516.02
2022-10-05T06:30:39.553Z,101513.65
2022-10-05T06:32:02.146Z,101519.42
2022-10-05T06:33:20.705Z,101522.63
2022-10-05T06:34:43.834Z,101515.83
2022-10-05T06:36:32.629Z,101521.75
2022-10-05T06:38:00.403Z,101520.08
2022-10-05T06:39:25.153Z,101530.39
2022-10-05T06:40:42.866Z,101523.73
2022-10-05T06:42:05.710Z,101522.00
2022-10-05T06:43:48.166Z,101520.34
2022-10-05T06:45:11.114Z,101523.05
2022-10-05T06:46:42.118Z,101527.55
2022-10-05T06:48:35.077Z,101533.52
2022-10-05T06:50:01.308Z,101531.05
2022-10-05T06:51:39.992Z,101538.66
2022-10-05T06:53:07.927Z,101537.67
2022-10-05T06:54:15.766Z,101540.09
2022-10-05T06:55:32.024Z,101538.80
2022-10-05T06:56:52.726Z,101539.92
2022-10-05T06:58:25.770Z,101533.30
2022-10-05T06:59:43.779Z,101530.31
2022-10-05T07:00:53.582Z,101536.05
2022-10-05T07:01:58.645Z,101539.16
2022-10-05T07:03:10.115Z,101537.46
2022-10-05T07:04:24.019Z,101540.86
2022-10-05T07:05:50.371Z,101547.00
2022-10-05T07:06:57.237Z,101551.77
2022-10-05T07:08:07.604Z,101554.14
2022-10-05T07:09:24.595Z,101551.95
2022-10-05T07:10:52.635Z,101551.66
2022-10-05T07:12:23.067Z,101553.23
2022-10-05T07:13:55.781Z,101545.13
2022-10-05T07:14:57.509Z,101543.77
2022-10-05T07:16:22.707Z,101550.15
2022-10-05T07:17:36.733Z,101548.32
2022-10-05T07:19:16.500Z,101542.20
2022-10-05T07:20:50.125Z,101544.08
2022-10-05T07:22:24.986Z,101548.19
2022-10-05T07:23:48.571Z,101543.47
2022-10-05T07:25:18.966Z,101549.17
2022-10-05T07:26:30.435Z,101561.86
2022-10-05T07:27:41.808Z,101567.88
2022-10-05T07:29:12.162Z,101565.44
2022-10-05T07:30:15.465Z,101560.58
2022-10-05T07:31:23.874Z,101557.10
2022-10-05T07:32:54.872Z,101554.36
2022-10-05T07:34:22.597Z,101545.11
2022-10-05T07:36:05.510Z,101539.30
2022-10-05T07:37:32.217Z,101535.25
2022-10-05T07:38:53.708Z,101538.83
2022-10-05T07:40:18.951Z,101543.55
2022-10-05T07:41:53.475Z,101539.81
2022-10-05T07:43:05.528Z,101539.85
2022-10-05T07:44:27.267Z,101530.73
2022-10-05T07:46:00.970Z,101522.16
2022-10-05T07:47:25.562Z,101518.38
2022-10-05T07:48:44.550Z,101518.33
2022-10-05T07:50:13.659Z,101517.79
2022-10-05T07:51:27.656Z,101524.52
2022-10-05T07:52:51.891Z,101523.09
2022-10-05T07:54:13.000Z,101527.89
2022-10-05T07:55:21.376Z,101527.40
2022-10-05T07:56:37.793Z,101525.85
2022-10-05T07:57:56.534Z,101520.75
2022-10-05T07:59:07.181Z,101518.42
2022-10-05T08:00:47.793Z,101512.81
2022-10-05T08:01:58.684Z,101516.55
2022-10-05T08:03:10.844Z,101516.86
2022-10-05T08:04:23.943Z,101514.55
2022-10-05T08:05:27.803Z,101513.48
2022-10-05T08:06:40.209Z,101517.70
2022-10-05T08:07:42.534Z,101517.86
2022-10-05T08:08:56.817Z,101520.05
2022-10-05T08:09:58.698Z,101519.72
2022-10-05T08:11:12.079Z,101521.81
2022-10-05T08:12:23.485Z,101518.84
2022-10-05T08:13:38.840Z,101516.44
2022-10-05T08:14:52.299Z,101521.59
2022-10-05T08:16:00.050Z,101522.03
2022-10-05T08:17:10.799Z,101527.42
2022-10-05T08:18:23.993Z,101521.77
2022-10-05T08:19:34.155Z,101519.31
2022-10-05T08:20:51.399Z,101519.89
2022-10-05T08:22:05.607Z,101520.63
2022-10-05T08:23:25.046Z,101519.69
2022-10-05T08:24:29.614Z,101524.23
2022-10-05T08:25:44.776Z,101524.99
2022-10-05T08:26:51.024Z,101527.63
2022-10-05T08:28:04.301Z,101534.59
2022-10-05T08:29:27.061Z,101539.52
2022-10-05T08:30:34.972Z,101542.08
2022-10-05T08:31:39.567Z,101549.60
2022-10-05T08:33:15.221Z,101552.39
2022-10-05T08:34:34.045Z,101555.16
2022-10-05T08:35:43.355Z,101549.09
2022-10-05T08:36:58.051Z,101547.88
2022-10-05T08:38:16.132Z,101549.50
2022-10-05T08:39:20.770Z,101547.93
2022-10-05T08:40:41.548Z,101546.40
2022-10-05T08:42:01.111Z,101544.75
2022-10-05T08:43:21.393Z,101542.17
2022-10-05T08:44:37.295Z,101542.55
2022-10-05T08:46:21.333Z,101543.98
2022-10-05T08:47:36.612Z,101543.80
2022-10-05T08:49:03.862Z,101547.87
2022-10-05T08:51:01.318Z,101554.59
2022-10-05T08:52:28.583Z,101553.16
2022-10-05T08:53:41.717Z,101555.21
2022-10-05T08:55:10.332Z,101553.38
2022-10-05T08:56:30.716Z,101545.71
2022-10-05T08:57:41.155Z,101544.75
2022-10-05T08:59:07.071Z,101534.60
2022-10-05T09:00:31.930Z,101534.64
2022-10-05T09:02:10.922Z,101533.83
2022-10-05T09:03:25.053Z,101533.36
2022-10-05T09:04:45.452Z,101538.02
2022-10-05T09:06:19.934Z,101535.47
2022-10-05T09:07:36.353Z,101531.37
2022-10-05T09:08:56.570Z,101527.92
2022-10-05T09:10:35.747Z,101528.06
2022-10-05T09:11:43.167Z,101515.92
2022-10-05T09:13:18.100Z,101516.49
2022-10-05T09:14:56.421Z,101517.84
2022-10-05T09:16:45.962Z,101518.52
2022-10-05T09:18:09.478Z,101514.27
2022-10-05T09:19:32.289Z,101517.48
2022-10-05T09:20:53.211Z,101516.94
2022-10-05T09:22:04.407Z,101512.55
2022-10-05T09:23:39.408Z,101520.19
2022-10-05T09:25:03.194Z,101522.02
2022-10-05T09:26:11.726Z,101522.75
2022-10-05T09:27:16.178Z,101522.86
2022-10-05T09:28:48.988Z,101526.41
2022-10-05T09:30:14.915Z,101516.38
2022-10-05T09:32:00.467Z,101524.77
2022-10-05T09:33:31.086Z,101524.80
2022-10-05T09:34:51.186Z,101522.11
2022-10-05T09:36:04.889Z,101525.70
2022-10-05T09:37:21.737Z,101528.50
2022-10-05T09:39:04.625Z,101529.69
2022-10-05T09:40:24.829Z,101531.54
2022-10-05T09:41:35.261Z,101529.65
2022-10-05T09:42:49.530Z,101530.74
2022-10-05T09:43:53.812Z,101525.51
2022-10-05T09:45:23.563Z,101527.52
2022-10-05T09:46:37.355Z,101527.59
2022-10-05T09:47:50.800Z,101530.95
2022-10-05T09:49:23.386Z,101528.67
2022-10-05T09:50:43.822Z,101522.73
2022-10-05T09:51:58.139Z,101524.62
2022-10-05T09:53:10.142Z,101529.84
2022-10-05T09:54:28.206Z,101534.61
2022-10-05T09:55:30.467Z,101525.00
2022-10-05T09:56:59.596Z,101535.02
2022-10-05T09:58:14.072Z,101538.27
2022-10-05T09:59:21.427Z,101531.48
2022-10-05T10:00:40.127Z,101533.18
2022-10-05T10:02:22.360Z,101535.96
2022-10-05T10:03:53.426Z,101537.44
2022-10-05T10:05:05.126Z,101542.60
2022-10-05T10:06:12.461Z,101541.06
2022-10-05T10:07:16.911Z,101538.10
2022-10-05T10:08:30.670Z,101537.06
2022-10-05T10:09:44.400Z,101533.58
2022-10-05T10:11:01.634Z,101530.04
2022-10-05T10:12:18.110Z,101524.14
2022-10-05T10:14:02.047Z,101533.17
2022-10-05T10:15:15.731Z,101523.31
2022-10-05T10:16:39.152Z,101528.67
2022-10-05T10:17:46.895Z,101521.70
2022-10-05T10:19:09.998Z,101524.83
2022-10-05T10:20:22.386Z,101522.00
2022-10-05T10:22:01.549Z,101523.05
2022-10-05T10:23:03.127Z,101524.84
2022-10-05T10:24:57.192Z,101521.17
2022-10-05T10:26:49.648Z,101518.30
2022-10-05T10:28:18.740Z,101521.19
2022-10-05T10:29:45.331Z,101514.08
2022-10-05T10:31:22.812Z,101516.23
2022-10-05T10:32:51.914Z,101516.90
2022-10-05T10:34:15.663Z,101518.21
2022-10-05T10:35:20.547Z,101519.44
2022-10-05T10:36:34.316Z,101511.89
2022-10-05T10:38:12.507Z,101518.30
2022-10-05T10:39:44.703Z,101510.77
2022-10-05T10:41:07.951Z,101518.75
2022-10-05T10:42:38.782Z,101512.04
2022-10-05T10:43:46.562Z,101514.59
2022-10-05T10:44:48.287Z,101513.92
2022-10-05T10:46:08.077Z,101510.06
2022-10-05T10:47:27.930Z,101508.97
2022-10-05T10:48:29.731Z,101504.09
2022-10-05T10:49:57.443Z,101502.77
2022-10-05T10:51:09.731Z,101501.29
2022-10-05T10:52:48.486Z,101504.67
2022-10-05T10:54:27.885Z,101504.46
2022-10-05T10:55:33.452Z,101501.48
2022-10-05T10:56:54.787Z,101500.95
2022-10-05T10:58:16.444Z,101504.06
2022-10-05T10:59:36.631Z,101505.24
2022-10-05T11:01:06.023Z,101503.73
2022-10-05T11:02:19.804Z,101495.71
2022-10-05T11:03:33.391Z,101495.55
2022-10-05T11:04:56.561Z,101489.10
2022-10-05T11:06:42.438Z,101492.80
2022-10-05T11:07:54.233Z,101491.35
2022-10-05T11:09:40.407Z,101494.61
2022-10-05T11:11:12.670Z,101491.38
2022-10-05T11:12:34.547Z,101498.03
2022-10-05T11:14:02.247Z,101502.34
2022-10-05T11:15:24.674Z,101497.64
2022-10-05T11:17:07.624Z,101500.73
2022-10-05T11:18:27.664Z,101500.58
2022-10-05T11:20:03.078Z,101499.23
2022-10-05T11:21:31.103Z,101502.23
2022-10-05T11:22:54.207Z,101492.39
2022-10-05T11:24:18.541Z,101494.73
2022-10-05T11:25:43.703Z,101494.02
2022-10-05T11:27:19.794Z,101495.11
2022-10-05T11:28:45.600Z,101489.55
2022-10-05T11:30:01.243Z,101501.03
2022-10-05T11:31:34.007Z,101496.50
2022-10-05T11:33:01.422Z,101495.20
2022-10-05T11:34:33.788Z,101491.89
2022-10-05T11:35:53.365Z,101497.34
2022-10-05T11:37:32.405Z,101487.44
2022-10-05T11:39:19.953Z,101494.46
2022-10-05T11:40:42.384Z,101488.15
2022-10-05T11:42:06.521Z,101488.87
2022-10-05T11:43:49.963Z,101480.71
2022-10-05T11:44:54.290Z,101487.16
2022-10-05T11:46:07.987Z,101490.05
2022-10-05T11:47:33.242Z,101488.16
2022-10-05T11:48:40.554Z,101491.34
2022-10-05T11:49:42.177Z,101487.23
2022-10-05T11:51:14.552Z,101489.23
2022-10-05T11:52:39.776Z,101489.59
2022-10-05T11:54:02.646Z,101485.48
2022-10-05T11:55:27.252Z,101482.66
2022-10-05T11:56:41.883Z,101484.16
2022-10-05T11:57:52.340Z,101481.80
2022-10-05T11:59:07.085Z,101481.77
2022-10-05T12:00:15.371Z,101480.48
2022-10-05T12:01:26.855Z,101479.46
2022-10-05T12:02:34.505Z,101478.40
2022-10-05T12:03:57.459Z,101478.27
2022-10-05T12:05:22.183Z,101480.73
2022-10-05T12:06:51.422Z,101483.42
2022-10-05T12:08:14.742Z,101480.42
2022-10-05T12:09:31.541Z,101482.02
2022-10-05T12:10:48.162Z,101486.58
2022-10-05T12:11:58.805Z,101487.10
2022-10-05T12:13:03.459Z,101488.06
2022-10-05T12:14:19.558Z,101486.01
2022-10-05T12:15:44.109Z,101488.77
2022-10-05T12:17:14.009Z,101485.87
2022-10-05T12:18:30.538Z,101485.44
2022-10-05T12:19:38.229Z,101486.84
2022-10-05T12:20:45.645Z,101489.46
2022-10-05T12:22:14.725Z,101493.33
2022-10-05T12:23:34.090Z,101492.00
2022-10-05T12:24:35.786Z,101488.41
2022-10-05T12:25:47.729Z,101492.99
2022-10-05T12:27:06.680Z,101492.20
2022-10-05T12:28:17.461Z,101490.66
2022-10-05T12:29:41.251Z,101492.70
2022-10-05T12:31:18.075Z,101488.05
2022-10-05T12:32:36.471Z,101489.93
2022-10-05T12:34:08.399Z,101484.55
2022-10-05T12:35:48.288Z,101485.54
2022-10-05T12:37:09.266Z,101481.42
2022-10-05T12:38:16.404Z,101474.87
2022-10-05T12:39:55.430Z,101474.10
2022-10-05T12:41:36.258Z,101474.92
2022-10-05T12:42:59.167Z,101476.32
2022-10-05T12:44:15.927Z,101478.33
2022-10-05T12:45:53.297Z,101480.39
2022-10-05T12:47:30.008Z,101483.98
2022-10-05T12:48:55.511Z,101482.88
2022-10-05T12:50:32.596Z,101487.66
2022-10-05T12:51:54.301Z,101490.70
2022-10-05T12:53:21.181Z,101493.89
2022-10-05T12:55:00.135Z,101491.16
2022-10-05T12:56:41.956Z,101489.71
2022-10-05T12:57:54.872Z,101495.71
2022-10-05T12:59:08.421Z,101489.20
2022-10-05T13:00:22.635Z,101489.76
2022-10-05T13:01:42.665Z,101484.48
2022-10-05T13:02:44.418Z,101485.47
2022-10-05T13:04:18.393Z,101480.98
2022-10-05T13:05:32.288Z,101482.13
2022-10-05T13:06:51.553Z,101487.34
2022-10-05T13:08:29.439Z,101483.36
2022-10-05T13:09:41.720Z,101481.10
2022-10-05T13:11:11.392Z,101484.52
2022-10-05T13:12:44.080Z,101478.30
2022-10-05T13:13:54.533Z,101473.06
2022-10-05T13:15:03.795Z,101477.30
2022-10-05T13:16:14.953Z,101482.90
2022-10-05T13:17:28.930Z,101481.45
2022-10-05T13:18:55.435Z,101478.27
2022-10-05T13:20:04.779Z,101473.71
2022-10-05T13:21:22.267Z,101478.02
2022-10-05T13:22:45.854Z,101470.23
2022-10-05T13:24:06.595Z,101479.31
2022-10-05T13:25:17.595Z,101474.40
2022-10-05T13:26:27.496Z,101471.52
2022-10-05T13:27:34.827Z,101470.67
2022-10-05T13:28:47.645Z,101465.86
2022-10-05T13:30:18.169Z,101467.56
2022-10-05T13:31:26.110Z,101464.86
2022-10-05T13:32:36.190Z,101463.77
2022-10-05T13:34:07.329Z,101461.59
2022-10-05T13:35:24.479Z,101459.28
2022-10-05T13:36:46.180Z,101456.03
2022-10-05T13:38:10.644Z,101455.27
2022-10-05T13:39:27.963Z,101449.27
2022-10-05T13:40:50.076Z,101447.87
2022-10-05T13:42:17.128Z,101446.50
2022-10-05T13:45:00.550Z,101444.28
2022-10-05T13:46:10.226Z,101446.34
2022-10-05T13:47:39.021Z,101446.86
2022-10-05T13:48:56.398Z,101447.11
2022-10-05T13:50:18.412Z,101445.02
2022-10-05T13:51:28.745Z,101441.95
2022-10-05T13:52:43.740Z,101440.02
2022-10-05T13:54:11.405Z,101444.67
2022-10-05T13:55:46.105Z,101444.80
2022-10-05T13:56:55.134Z,101440.73
2022-10-05T13:58:04.993Z,101441.48
2022-10-05T13:59:42.714Z,101440.92
2022-10-05T14:01:02.544Z,101442.58
2022-10-05T14:02:16.834Z,101449.48
2022-10-05T14:03:27.307Z,101445.88
2022-10-05T14:04:43.480Z,101449.09
2022-10-05T14:05:55.847Z,101446.70
2022-10-05T14:07:21.263Z,101449.00
2022-10-05T14:08:47.057Z,101449.54
2022-10-05T14:09:51.757Z,101449.27
2022-10-05T14:10:55.415Z,101449.00
2022-10-05T14:12:02.994Z,101449.62
2022-10-05T14:13:23.088Z,101457.02
2022-10-05T14:14:27.693Z,101458.54
2022-10-05T14:15:37.312Z,101456.98
2022-10-05T14:16:51.815Z,101455.39
2022-10-05T14:17:54.011Z,101459.83
2022-10-05T14:19:04.803Z,101453.67
2022-10-05T14:20:35.759Z,101459.52
2022-10-05T14:21:53.356Z,101457.42
2022-10-05T14:23:01.774Z,101456.38
2022-10-05T14:24:44.620Z,101453.25
2022-10-05T14:25:53.226Z,101449.69
2022-10-05T14:26:58.859Z,101449.09
2022-10-05T14:28:32.357Z,101447.15
2022-10-05T14:29:37.413Z,101450.16
2022-10-05T14:30:39.848Z,101443.69
2022-10-05T14:31:58.709Z,101444.02
2022-10-05T14:33:03.648Z,101444.77
2022-10-05T14:34:26.948Z,101444.48
2022-10-05T14:35:50.485Z,101447.13
2022-10-05T14:36:59.415Z,101453.90
2022-10-05T14:38:15.745Z,101457.23
2022-10-05T14:39:24.957Z,101453.26
2022-10-05T14:40:37.577Z,101455.08
2022-10-05T14:41:48.238Z,101451.05
2022-10-05T14:42:50.818Z,101447.23
2022-10-05T14:44:02.081Z,101449.83
2022-10-05T14:45:20.024Z,101449.77
2022-10-05T14:46:27.815Z,101448.98
2022-10-05T14:47:31.555Z,101448.70
2022-10-05T14:48:44.746Z,101448.15
2022-10-05T14:50:15.339Z,101447.37
2022-10-05T14:51:31.408Z,101449.67
2022-10-05T14:52:34.100Z,101448.35
2022-10-05T14:53:40.381Z,101450.46
2022-10-05T14:55:00.335Z,101444.65
2022-10-05T14:56:31.730Z,101446.46
2022-10-05T14:58:08.344Z,101449.82
2022-10-05T14:59:42.793Z,101448.51
2022-10-05T15:01:00.411Z,101448.15
2022-10-05T15:02:24.409Z,101446.98
2022-10-05T15:03:46.012Z,101456.75